sensor_id;sensor_type;location;lat;lon;timestamp;P1;durP1;ratioP1;P2;durP2;ratioP2
10050;SDS011;5065;46.942;7.432;2024-02-04T00:02:00;3.93;;;3.47;;
10050;SDS011;5065;46.942;7.432;2024-02-04T00:04:29;4.73;;;3.60;;
10050;SDS011;5065;46.942;7.432;2024-02-04T00:06:57;4.07;;;3.00;;
10050;SDS011;5065;46.942;7.432;2024-02-04T00:09:25;4.00;;;3.40;;
10050;SDS011;5065;46.942;7.432;2024-02-04T00:11:53;4.73;;;3.50;;
10050;SDS011;5065;46.942;7.432;2024-02-04T00:14:23;4.93;;;3.43;;
10050;SDS011;5065;46.942;7.432;2024-02-04T00:16:51;3.97;;;3.20;;
10050;SDS011;5065;46.942;7.432;2024-02-04T00:19:19;3.30;;;3.00;;
10050;SDS011;5065;46.942;7.432;2024-02-04T00:21:47;4.37;;;3.00;;
10050;SDS011;5065;46.942;7.432;2024-02-04T00:24:14;4.63;;;3.40;;
10050;SDS011;5065;46.942;7.432;2024-02-04T00:26:43;4.37;;;2.73;;
10050;SDS011;5065;46.942;7.432;2024-02-04T00:29:11;3.50;;;3.03;;
10050;SDS011;5065;46.942;7.432;2024-02-04T00:31:38;3.33;;;3.00;;
10050;SDS011;5065;46.942;7.432;2024-02-04T00:34:05;5.00;;;3.23;;
10050;SDS011;5065;46.942;7.432;2024-02-04T00:36:32;4.27;;;2.90;;
10050;SDS011;5065;46.942;7.432;2024-02-04T00:39:01;5.00;;;3.77;;
10050;SDS011;5065;46.942;7.432;2024-02-04T00:41:29;4.17;;;3.23;;
10050;SDS011;5065;46.942;7.432;2024-02-04T00:43:56;5.73;;;3.07;;
10050;SDS011;5065;46.942;7.432;2024-02-04T00:46:23;4.07;;;3.03;;
10050;SDS011;5065;46.942;7.432;2024-02-04T00:48:50;4.87;;;3.20;;
10050;SDS011;5065;46.942;7.432;2024-02-04T00:51:18;3.67;;;2.97;;
10050;SDS011;5065;46.942;7.432;2024-02-04T00:53:45;3.87;;;2.80;;
10050;SDS011;5065;46.942;7.432;2024-02-04T00:56:15;3.40;;;2.40;;
10050;SDS011;5065;46.942;7.432;2024-02-04T00:58:42;3.83;;;2.67;;
10050;SDS011;5065;46.942;7.432;2024-02-04T01:01:09;3.90;;;2.77;;
10050;SDS011;5065;46.942;7.432;2024-02-04T01:03:37;5.10;;;2.77;;
10050;SDS011;5065;46.942;7.432;2024-02-04T01:06:04;4.43;;;2.37;;
10050;SDS011;5065;46.942;7.432;2024-02-04T01:08:31;2.63;;;2.03;;
10050;SDS011;5065;46.942;7.432;2024-02-04T01:11:00;3.23;;;2.47;;
10050;SDS011;5065;46.942;7.432;2024-02-04T01:13:28;10.50;;;2.50;;
10050;SDS011;5065;46.942;7.432;2024-02-04T01:15:56;2.77;;;2.23;;
10050;SDS011;5065;46.942;7.432;2024-02-04T01:18:23;5.90;;;3.20;;
10050;SDS011;5065;46.942;7.432;2024-02-04T01:20:50;3.10;;;2.77;;
10050;SDS011;5065;46.942;7.432;2024-02-04T01:23:17;4.30;;;3.20;;
10050;SDS011;5065;46.942;7.432;2024-02-04T01:25:45;4.60;;;2.87;;
10050;SDS011;5065;46.942;7.432;2024-02-04T01:28:12;3.40;;;2.97;;
10050;SDS011;5065;46.942;7.432;2024-02-04T01:30:41;5.17;;;3.03;;
10050;SDS011;5065;46.942;7.432;2024-02-04T01:33:08;5.00;;;3.33;;
10050;SDS011;5065;46.942;7.432;2024-02-04T01:35:35;4.50;;;2.83;;
10050;SDS011;5065;46.942;7.432;2024-02-04T01:38:02;3.17;;;2.40;;
10050;SDS011;5065;46.942;7.432;2024-02-04T01:40:29;2.83;;;1.73;;
10050;SDS011;5065;46.942;7.432;2024-02-04T01:42:57;5.73;;;2.73;;
10050;SDS011;5065;46.942;7.432;2024-02-04T01:45:24;3.20;;;2.50;;
10050;SDS011;5065;46.942;7.432;2024-02-04T01:47:53;4.80;;;3.13;;
10050;SDS011;5065;46.942;7.432;2024-02-04T01:50:21;4.23;;;3.17;;
10050;SDS011;5065;46.942;7.432;2024-02-04T01:52:49;4.07;;;3.10;;
10050;SDS011;5065;46.942;7.432;2024-02-04T01:55:18;3.03;;;2.70;;
10050;SDS011;5065;46.942;7.432;2024-02-04T01:57:46;4.53;;;3.20;;
10050;SDS011;5065;46.942;7.432;2024-02-04T02:00:15;4.57;;;3.30;;
10050;SDS011;5065;46.942;7.432;2024-02-04T02:02:43;4.97;;;3.33;;
10050;SDS011;5065;46.942;7.432;2024-02-04T02:05:16;4.33;;;3.30;;
10050;SDS011;5065;46.942;7.432;2024-02-04T02:07:43;3.47;;;3.07;;
10050;SDS011;5065;46.942;7.432;2024-02-04T02:10:13;4.23;;;3.40;;
10050;SDS011;5065;46.942;7.432;2024-02-04T02:12:41;3.53;;;3.03;;
10050;SDS011;5065;46.942;7.432;2024-02-04T02:15:14;3.23;;;2.83;;
10050;SDS011;5065;46.942;7.432;2024-02-04T02:17:47;3.73;;;2.43;;
10050;SDS011;5065;46.942;7.432;2024-02-04T02:20:20;10.57;;;3.00;;
10050;SDS011;5065;46.942;7.432;2024-02-04T02:22:51;4.03;;;3.00;;
10050;SDS011;5065;46.942;7.432;2024-02-04T02:25:27;3.77;;;2.87;;
10050;SDS011;5065;46.942;7.432;2024-02-04T02:27:57;2.80;;;2.40;;
10050;SDS011;5065;46.942;7.432;2024-02-04T02:30:23;3.27;;;2.60;;
10050;SDS011;5065;46.942;7.432;2024-02-04T02:32:50;3.10;;;2.63;;
10050;SDS011;5065;46.942;7.432;2024-02-04T02:35:17;4.13;;;3.07;;
10050;SDS011;5065;46.942;7.432;2024-02-04T02:37:46;4.17;;;2.30;;
10050;SDS011;5065;46.942;7.432;2024-02-04T02:40:20;2.77;;;2.33;;
10050;SDS011;5065;46.942;7.432;2024-02-04T02:42:53;3.90;;;2.13;;
10050;SDS011;5065;46.942;7.432;2024-02-04T02:45:22;4.33;;;3.17;;
10050;SDS011;5065;46.942;7.432;2024-02-04T02:47:52;2.93;;;2.63;;
10050;SDS011;5065;46.942;7.432;2024-02-04T02:50:20;5.00;;;2.50;;
10050;SDS011;5065;46.942;7.432;2024-02-04T02:52:47;3.43;;;2.60;;
10050;SDS011;5065;46.942;7.432;2024-02-04T02:55:14;3.33;;;2.47;;
10050;SDS011;5065;46.942;7.432;2024-02-04T02:57:42;3.13;;;2.63;;
10050;SDS011;5065;46.942;7.432;2024-02-04T03:00:11;4.07;;;2.70;;
10050;SDS011;5065;46.942;7.432;2024-02-04T03:02:39;4.90;;;3.23;;
10050;SDS011;5065;46.942;7.432;2024-02-04T03:05:06;2.80;;;2.60;;
10050;SDS011;5065;46.942;7.432;2024-02-04T03:07:34;3.97;;;2.47;;
10050;SDS011;5065;46.942;7.432;2024-02-04T03:10:01;3.73;;;2.70;;
10050;SDS011;5065;46.942;7.432;2024-02-04T03:12:29;2.93;;;2.60;;
10050;SDS011;5065;46.942;7.432;2024-02-04T03:14:56;4.07;;;2.80;;
10050;SDS011;5065;46.942;7.432;2024-02-04T03:17:24;5.53;;;3.00;;
10050;SDS011;5065;46.942;7.432;2024-02-04T03:19:52;3.53;;;2.33;;
10050;SDS011;5065;46.942;7.432;2024-02-04T03:22:20;2.50;;;2.30;;
10050;SDS011;5065;46.942;7.432;2024-02-04T03:24:47;2.90;;;2.43;;
10050;SDS011;5065;46.942;7.432;2024-02-04T03:27:17;2.87;;;2.50;;
10050;SDS011;5065;46.942;7.432;2024-02-04T03:29:45;3.07;;;2.40;;
10050;SDS011;5065;46.942;7.432;2024-02-04T03:32:17;2.50;;;2.30;;
10050;SDS011;5065;46.942;7.432;2024-02-04T03:34:45;3.97;;;2.70;;
10050;SDS011;5065;46.942;7.432;2024-02-04T03:37:12;4.50;;;3.13;;
10050;SDS011;5065;46.942;7.432;2024-02-04T03:39:39;4.33;;;2.30;;
10050;SDS011;5065;46.942;7.432;2024-02-04T03:42:06;2.67;;;2.47;;
10050;SDS011;5065;46.942;7.432;2024-02-04T03:44:34;2.60;;;2.03;;
10050;SDS011;5065;46.942;7.432;2024-02-04T03:47:01;2.20;;;2.00;;
10050;SDS011;5065;46.942;7.432;2024-02-04T03:49:30;2.70;;;2.13;;
10050;SDS011;5065;46.942;7.432;2024-02-04T03:51:58;3.03;;;2.63;;
10050;SDS011;5065;46.942;7.432;2024-02-04T03:54:26;2.13;;;1.93;;
10050;SDS011;5065;46.942;7.432;2024-02-04T03:56:53;4.23;;;2.13;;
10050;SDS011;5065;46.942;7.432;2024-02-04T03:59:20;3.30;;;2.97;;
10050;SDS011;5065;46.942;7.432;2024-02-04T04:01:47;5.00;;;2.50;;
10050;SDS011;5065;46.942;7.432;2024-02-04T04:04:15;3.77;;;2.67;;
10050;SDS011;5065;46.942;7.432;2024-02-04T04:06:42;2.63;;;2.40;;
10050;SDS011;5065;46.942;7.432;2024-02-04T04:09:12;3.60;;;2.63;;
10050;SDS011;5065;46.942;7.432;2024-02-04T04:11:39;2.63;;;2.43;;
10050;SDS011;5065;46.942;7.432;2024-02-04T04:14:07;2.87;;;2.13;;
10050;SDS011;5065;46.942;7.432;2024-02-04T04:16:34;3.27;;;2.30;;
10050;SDS011;5065;46.942;7.432;2024-02-04T04:19:01;2.63;;;1.93;;
10050;SDS011;5065;46.942;7.432;2024-02-04T04:21:28;3.77;;;2.17;;
10050;SDS011;5065;46.942;7.432;2024-02-04T04:23:55;2.17;;;1.97;;
10050;SDS011;5065;46.942;7.432;2024-02-04T04:26:24;2.00;;;1.80;;
10050;SDS011;5065;46.942;7.432;2024-02-04T04:28:51;2.43;;;2.17;;
10050;SDS011;5065;46.942;7.432;2024-02-04T04:31:18;2.87;;;2.50;;
10050;SDS011;5065;46.942;7.432;2024-02-04T04:33:45;3.27;;;2.40;;
10050;SDS011;5065;46.942;7.432;2024-02-04T04:36:12;3.93;;;2.77;;
10050;SDS011;5065;46.942;7.432;2024-02-04T04:38:40;2.27;;;2.07;;
10050;SDS011;5065;46.942;7.432;2024-02-04T04:41:07;4.53;;;2.93;;
10050;SDS011;5065;46.942;7.432;2024-02-04T04:43:37;3.30;;;3.00;;
10050;SDS011;5065;46.942;7.432;2024-02-04T04:46:04;3.97;;;2.70;;
10050;SDS011;5065;46.942;7.432;2024-02-04T04:48:32;5.27;;;2.40;;
10050;SDS011;5065;46.942;7.432;2024-02-04T04:50:59;4.67;;;2.73;;
10050;SDS011;5065;46.942;7.432;2024-02-04T04:53:27;3.03;;;2.20;;
10050;SDS011;5065;46.942;7.432;2024-02-04T04:55:54;2.07;;;1.87;;
10050;SDS011;5065;46.942;7.432;2024-02-04T04:58:21;5.33;;;2.80;;
10050;SDS011;5065;46.942;7.432;2024-02-04T05:00:50;4.67;;;3.03;;
10050;SDS011;5065;46.942;7.432;2024-02-04T05:03:17;2.57;;;2.17;;
10050;SDS011;5065;46.942;7.432;2024-02-04T05:05:44;3.10;;;2.80;;
10050;SDS011;5065;46.942;7.432;2024-02-04T05:08:12;3.43;;;2.20;;
10050;SDS011;5065;46.942;7.432;2024-02-04T05:10:40;3.53;;;2.40;;
10050;SDS011;5065;46.942;7.432;2024-02-04T05:13:08;3.00;;;2.20;;
10050;SDS011;5065;46.942;7.432;2024-02-04T05:15:34;3.53;;;3.03;;
10050;SDS011;5065;46.942;7.432;2024-02-04T05:18:02;2.90;;;2.60;;
10050;SDS011;5065;46.942;7.432;2024-02-04T05:20:30;2.67;;;2.17;;
10050;SDS011;5065;46.942;7.432;2024-02-04T05:22:57;2.43;;;2.23;;
10050;SDS011;5065;46.942;7.432;2024-02-04T05:25:24;3.27;;;2.83;;
10050;SDS011;5065;46.942;7.432;2024-02-04T05:27:52;2.47;;;2.27;;
10050;SDS011;5065;46.942;7.432;2024-02-04T05:30:19;2.47;;;2.10;;
10050;SDS011;5065;46.942;7.432;2024-02-04T05:32:46;4.37;;;2.43;;
10050;SDS011;5065;46.942;7.432;2024-02-04T05:35:14;3.00;;;2.60;;
10050;SDS011;5065;46.942;7.432;2024-02-04T05:37:41;3.10;;;2.60;;
10050;SDS011;5065;46.942;7.432;2024-02-04T05:40:09;2.90;;;2.60;;
10050;SDS011;5065;46.942;7.432;2024-02-04T05:42:37;2.80;;;2.57;;
10050;SDS011;5065;46.942;7.432;2024-02-04T05:45:04;4.67;;;2.57;;
10050;SDS011;5065;46.942;7.432;2024-02-04T05:47:32;3.23;;;2.93;;
10050;SDS011;5065;46.942;7.432;2024-02-04T05:49:59;2.93;;;2.33;;
10050;SDS011;5065;46.942;7.432;2024-02-04T05:52:28;4.00;;;2.90;;
10050;SDS011;5065;46.942;7.432;2024-02-04T05:54:55;3.67;;;3.03;;
10050;SDS011;5065;46.942;7.432;2024-02-04T05:57:22;3.10;;;2.50;;
10050;SDS011;5065;46.942;7.432;2024-02-04T05:59:49;6.80;;;2.53;;
10050;SDS011;5065;46.942;7.432;2024-02-04T06:02:17;2.37;;;2.10;;
10050;SDS011;5065;46.942;7.432;2024-02-04T06:04:45;3.87;;;2.87;;
10050;SDS011;5065;46.942;7.432;2024-02-04T06:07:13;2.73;;;2.17;;
10050;SDS011;5065;46.942;7.432;2024-02-04T06:09:42;2.97;;;2.50;;
10050;SDS011;5065;46.942;7.432;2024-02-04T06:12:09;2.20;;;2.00;;
10050;SDS011;5065;46.942;7.432;2024-02-04T06:14:37;2.73;;;2.53;;
10050;SDS011;5065;46.942;7.432;2024-02-04T06:17:05;3.00;;;2.80;;
10050;SDS011;5065;46.942;7.432;2024-02-04T06:19:33;2.57;;;2.37;;
10050;SDS011;5065;46.942;7.432;2024-02-04T06:22:01;3.30;;;2.93;;
10050;SDS011;5065;46.942;7.432;2024-02-04T06:24:28;3.57;;;2.93;;
10050;SDS011;5065;46.942;7.432;2024-02-04T06:26:56;3.67;;;2.50;;
10050;SDS011;5065;46.942;7.432;2024-02-04T06:29:24;3.10;;;2.73;;
10050;SDS011;5065;46.942;7.432;2024-02-04T06:31:51;2.67;;;1.80;;
10050;SDS011;5065;46.942;7.432;2024-02-04T06:34:18;2.47;;;2.07;;
10050;SDS011;5065;46.942;7.432;2024-02-04T06:36:46;5.43;;;2.47;;
10050;SDS011;5065;46.942;7.432;2024-02-04T06:39:13;2.97;;;2.67;;
10050;SDS011;5065;46.942;7.432;2024-02-04T06:41:40;3.20;;;2.87;;
10050;SDS011;5065;46.942;7.432;2024-02-04T06:44:10;3.03;;;2.50;;
10050;SDS011;5065;46.942;7.432;2024-02-04T06:46:37;3.40;;;2.50;;
10050;SDS011;5065;46.942;7.432;2024-02-04T06:49:04;2.33;;;2.13;;
10050;SDS011;5065;46.942;7.432;2024-02-04T06:51:32;3.13;;;2.57;;
10050;SDS011;5065;46.942;7.432;2024-02-04T06:53:59;4.30;;;2.43;;
10050;SDS011;5065;46.942;7.432;2024-02-04T06:56:26;3.43;;;2.43;;
10050;SDS011;5065;46.942;7.432;2024-02-04T06:58:54;4.83;;;2.87;;
10050;SDS011;5065;46.942;7.432;2024-02-04T07:01:22;2.63;;;2.20;;
10050;SDS011;5065;46.942;7.432;2024-02-04T07:03:50;2.87;;;2.10;;
10050;SDS011;5065;46.942;7.432;2024-02-04T07:06:17;2.50;;;2.03;;
10050;SDS011;5065;46.942;7.432;2024-02-04T07:08:44;2.83;;;2.43;;
10050;SDS011;5065;46.942;7.432;2024-02-04T07:11:11;1.97;;;1.77;;
10050;SDS011;5065;46.942;7.432;2024-02-04T07:13:38;2.50;;;2.07;;
10050;SDS011;5065;46.942;7.432;2024-02-04T07:16:06;3.70;;;2.10;;
10050;SDS011;5065;46.942;7.432;2024-02-04T07:18:34;2.87;;;2.17;;
10050;SDS011;5065;46.942;7.432;2024-02-04T07:21:01;2.60;;;1.90;;
10050;SDS011;5065;46.942;7.432;2024-02-04T07:23:28;9.53;;;2.57;;
10050;SDS011;5065;46.942;7.432;2024-02-04T07:25:55;3.03;;;2.73;;
10050;SDS011;5065;46.942;7.432;2024-02-04T07:28:23;3.07;;;2.50;;
10050;SDS011;5065;46.942;7.432;2024-02-04T07:30:50;3.67;;;2.33;;
10050;SDS011;5065;46.942;7.432;2024-02-04T07:33:17;2.73;;;2.37;;
10050;SDS011;5065;46.942;7.432;2024-02-04T07:35:45;2.17;;;1.97;;
10050;SDS011;5065;46.942;7.432;2024-02-04T07:38:12;2.13;;;1.80;;
10050;SDS011;5065;46.942;7.432;2024-02-04T07:40:40;1.53;;;1.33;;
10050;SDS011;5065;46.942;7.432;2024-02-04T07:43:07;4.73;;;1.90;;
10050;SDS011;5065;46.942;7.432;2024-02-04T07:45:34;1.83;;;1.73;;
10050;SDS011;5065;46.942;7.432;2024-02-04T07:48:01;1.60;;;1.40;;
10050;SDS011;5065;46.942;7.432;2024-02-04T07:50:28;2.30;;;1.90;;
10050;SDS011;5065;46.942;7.432;2024-02-04T07:52:57;1.83;;;1.57;;
10050;SDS011;5065;46.942;7.432;2024-02-04T07:55:24;2.77;;;1.67;;
10050;SDS011;5065;46.942;7.432;2024-02-04T07:57:51;1.57;;;1.47;;
10050;SDS011;5065;46.942;7.432;2024-02-04T08:00:21;1.67;;;1.57;;
10050;SDS011;5065;46.942;7.432;2024-02-04T08:02:48;2.87;;;1.80;;
10050;SDS011;5065;46.942;7.432;2024-02-04T08:05:15;2.47;;;1.93;;
10050;SDS011;5065;46.942;7.432;2024-02-04T08:07:42;2.27;;;2.07;;
10050;SDS011;5065;46.942;7.432;2024-02-04T08:10:11;2.37;;;2.17;;
10050;SDS011;5065;46.942;7.432;2024-02-04T08:12:40;5.67;;;2.43;;
10050;SDS011;5065;46.942;7.432;2024-02-04T08:15:08;4.47;;;3.37;;
10050;SDS011;5065;46.942;7.432;2024-02-04T08:17:36;5.40;;;3.23;;
10050;SDS011;5065;46.942;7.432;2024-02-04T08:20:03;2.87;;;2.60;;
10050;SDS011;5065;46.942;7.432;2024-02-04T08:22:31;5.43;;;2.80;;
10050;SDS011;5065;46.942;7.432;2024-02-04T08:24:58;3.70;;;2.73;;
10050;SDS011;5065;46.942;7.432;2024-02-04T08:27:29;2.53;;;2.03;;
10050;SDS011;5065;46.942;7.432;2024-02-04T08:29:56;4.23;;;2.07;;
10050;SDS011;5065;46.942;7.432;2024-02-04T08:32:23;2.67;;;2.07;;
10050;SDS011;5065;46.942;7.432;2024-02-04T08:34:51;2.37;;;1.90;;
10050;SDS011;5065;46.942;7.432;2024-02-04T08:37:18;3.63;;;2.57;;
10050;SDS011;5065;46.942;7.432;2024-02-04T08:39:45;2.70;;;2.10;;
10050;SDS011;5065;46.942;7.432;2024-02-04T08:42:12;4.80;;;2.30;;
10050;SDS011;5065;46.942;7.432;2024-02-04T08:44:41;2.37;;;1.47;;
10050;SDS011;5065;46.942;7.432;2024-02-04T08:47:08;2.80;;;2.00;;
10050;SDS011;5065;46.942;7.432;2024-02-04T08:49:38;2.87;;;1.77;;
10050;SDS011;5065;46.942;7.432;2024-02-04T08:52:05;3.53;;;2.30;;
10050;SDS011;5065;46.942;7.432;2024-02-04T08:54:32;4.23;;;2.17;;
10050;SDS011;5065;46.942;7.432;2024-02-04T08:56:59;2.07;;;1.87;;
10050;SDS011;5065;46.942;7.432;2024-02-04T08:59:26;2.13;;;1.93;;
10050;SDS011;5065;46.942;7.432;2024-02-04T09:01:55;3.23;;;2.53;;
10050;SDS011;5065;46.942;7.432;2024-02-04T09:04:22;2.23;;;2.03;;
10050;SDS011;5065;46.942;7.432;2024-02-04T09:06:49;3.40;;;2.33;;
10050;SDS011;5065;46.942;7.432;2024-02-04T09:09:16;4.23;;;2.47;;
10050;SDS011;5065;46.942;7.432;2024-02-04T09:11:43;2.67;;;2.30;;
10050;SDS011;5065;46.942;7.432;2024-02-04T09:14:11;3.87;;;2.03;;
10050;SDS011;5065;46.942;7.432;2024-02-04T09:16:38;3.30;;;2.43;;
10050;SDS011;5065;46.942;7.432;2024-02-04T09:19:06;3.83;;;2.57;;
10050;SDS011;5065;46.942;7.432;2024-02-04T09:21:33;2.83;;;2.17;;
10050;SDS011;5065;46.942;7.432;2024-02-04T09:24:01;4.57;;;2.10;;
10050;SDS011;5065;46.942;7.432;2024-02-04T09:26:28;4.30;;;2.40;;
10050;SDS011;5065;46.942;7.432;2024-02-04T09:28:55;3.53;;;2.20;;
10050;SDS011;5065;46.942;7.432;2024-02-04T09:31:22;5.63;;;2.67;;
10050;SDS011;5065;46.942;7.432;2024-02-04T09:33:49;3.43;;;2.37;;
10050;SDS011;5065;46.942;7.432;2024-02-04T09:36:18;2.70;;;2.10;;
10050;SDS011;5065;46.942;7.432;2024-02-04T09:38:47;2.10;;;1.80;;
10050;SDS011;5065;46.942;7.432;2024-02-04T09:41:16;2.97;;;2.03;;
10050;SDS011;5065;46.942;7.432;2024-02-04T09:43:43;3.17;;;2.07;;
10050;SDS011;5065;46.942;7.432;2024-02-04T09:46:11;2.43;;;2.20;;
10050;SDS011;5065;46.942;7.432;2024-02-04T09:48:38;3.07;;;1.97;;
10050;SDS011;5065;46.942;7.432;2024-02-04T09:51:06;2.70;;;2.40;;
10050;SDS011;5065;46.942;7.432;2024-02-04T09:53:35;3.53;;;2.33;;
10050;SDS011;5065;46.942;7.432;2024-02-04T09:56:05;3.00;;;2.47;;
10050;SDS011;5065;46.942;7.432;2024-02-04T09:58:34;3.40;;;2.40;;
10050;SDS011;5065;46.942;7.432;2024-02-04T10:01:01;2.30;;;2.10;;
10050;SDS011;5065;46.942;7.432;2024-02-04T10:03:30;2.87;;;2.03;;
10050;SDS011;5065;46.942;7.432;2024-02-04T10:05:57;4.20;;;2.33;;
10050;SDS011;5065;46.942;7.432;2024-02-04T10:08:25;5.97;;;2.07;;
10050;SDS011;5065;46.942;7.432;2024-02-04T10:10:54;5.17;;;4.00;;
10050;SDS011;5065;46.942;7.432;2024-02-04T10:13:21;4.53;;;2.63;;
10050;SDS011;5065;46.942;7.432;2024-02-04T10:15:49;7.13;;;2.57;;
10050;SDS011;5065;46.942;7.432;2024-02-04T10:18:17;3.73;;;2.60;;
10050;SDS011;5065;46.942;7.432;2024-02-04T10:20:44;2.83;;;2.10;;
10050;SDS011;5065;46.942;7.432;2024-02-04T10:23:12;4.90;;;2.33;;
10050;SDS011;5065;46.942;7.432;2024-02-04T10:25:39;3.90;;;2.73;;
10050;SDS011;5065;46.942;7.432;2024-02-04T10:28:07;3.73;;;2.57;;
10050;SDS011;5065;46.942;7.432;2024-02-04T10:30:37;2.97;;;2.10;;
10050;SDS011;5065;46.942;7.432;2024-02-04T10:33:04;3.33;;;1.93;;
10050;SDS011;5065;46.942;7.432;2024-02-04T10:35:32;3.73;;;2.23;;
10050;SDS011;5065;46.942;7.432;2024-02-04T10:38:00;3.13;;;1.90;;
10050;SDS011;5065;46.942;7.432;2024-02-04T10:40:27;2.27;;;1.53;;
10050;SDS011;5065;46.942;7.432;2024-02-04T10:42:54;2.47;;;1.80;;
10050;SDS011;5065;46.942;7.432;2024-02-04T10:45:32;3.53;;;2.03;;
10050;SDS011;5065;46.942;7.432;2024-02-04T10:48:01;2.43;;;1.90;;
10050;SDS011;5065;46.942;7.432;2024-02-04T10:50:29;2.60;;;1.80;;
10050;SDS011;5065;46.942;7.432;2024-02-04T10:53:00;2.57;;;2.03;;
10050;SDS011;5065;46.942;7.432;2024-02-04T10:55:32;2.00;;;1.80;;
10050;SDS011;5065;46.942;7.432;2024-02-04T10:58:09;3.13;;;2.00;;
10050;SDS011;5065;46.942;7.432;2024-02-04T11:00:40;2.47;;;1.83;;
10050;SDS011;5065;46.942;7.432;2024-02-04T11:03:07;2.27;;;1.50;;
10050;SDS011;5065;46.942;7.432;2024-02-04T11:05:36;2.53;;;1.73;;
10050;SDS011;5065;46.942;7.432;2024-02-04T11:08:05;2.93;;;1.90;;
10050;SDS011;5065;46.942;7.432;2024-02-04T11:10:32;3.10;;;2.00;;
10050;SDS011;5065;46.942;7.432;2024-02-04T11:13:01;2.07;;;1.80;;
10050;SDS011;5065;46.942;7.432;2024-02-04T11:15:32;1.90;;;1.73;;
10050;SDS011;5065;46.942;7.432;2024-02-04T11:21:06;2.27;;;1.90;;
10050;SDS011;5065;46.942;7.432;2024-02-04T11:24:00;5.43;;;2.10;;
10050;SDS011;5065;46.942;7.432;2024-02-04T11:26:40;4.57;;;1.63;;
10050;SDS011;5065;46.942;7.432;2024-02-04T11:29:07;2.50;;;2.30;;
10050;SDS011;5065;46.942;7.432;2024-02-04T11:31:38;2.73;;;1.80;;
10050;SDS011;5065;46.942;7.432;2024-02-04T11:34:07;3.00;;;1.73;;
10050;SDS011;5065;46.942;7.432;2024-02-04T11:36:37;15.90;;;7.43;;
10050;SDS011;5065;46.942;7.432;2024-02-04T11:39:11;3.33;;;1.90;;
10050;SDS011;5065;46.942;7.432;2024-02-04T11:41:44;2.47;;;1.80;;
10050;SDS011;5065;46.942;7.432;2024-02-04T11:44:13;2.63;;;1.97;;
10050;SDS011;5065;46.942;7.432;2024-02-04T11:46:47;4.27;;;2.67;;
10050;SDS011;5065;46.942;7.432;2024-02-04T11:49:16;4.17;;;2.07;;
10050;SDS011;5065;46.942;7.432;2024-02-04T11:51:44;3.17;;;2.30;;
10050;SDS011;5065;46.942;7.432;2024-02-04T11:54:14;2.87;;;2.40;;
10050;SDS011;5065;46.942;7.432;2024-02-04T11:56:43;4.20;;;2.87;;
10050;SDS011;5065;46.942;7.432;2024-02-04T11:59:11;3.83;;;2.20;;
10050;SDS011;5065;46.942;7.432;2024-02-04T12:01:39;2.90;;;1.97;;
10050;SDS011;5065;46.942;7.432;2024-02-04T12:04:10;2.20;;;1.93;;
10050;SDS011;5065;46.942;7.432;2024-02-04T12:06:40;2.30;;;1.90;;
10050;SDS011;5065;46.942;7.432;2024-02-04T12:09:07;2.83;;;1.67;;
10050;SDS011;5065;46.942;7.432;2024-02-04T12:11:35;4.40;;;2.13;;
10050;SDS011;5065;46.942;7.432;2024-02-04T12:14:04;2.83;;;1.90;;
10050;SDS011;5065;46.942;7.432;2024-02-04T12:16:32;3.40;;;1.70;;
10050;SDS011;5065;46.942;7.432;2024-02-04T12:19:01;1.70;;;1.60;;
10050;SDS011;5065;46.942;7.432;2024-02-04T12:21:29;3.30;;;1.27;;
10050;SDS011;5065;46.942;7.432;2024-02-04T12:23:58;3.13;;;2.00;;
10050;SDS011;5065;46.942;7.432;2024-02-04T12:26:26;3.43;;;1.90;;
10050;SDS011;5065;46.942;7.432;2024-02-04T12:28:54;2.60;;;2.00;;
10050;SDS011;5065;46.942;7.432;2024-02-04T12:31:22;3.17;;;2.07;;
10050;SDS011;5065;46.942;7.432;2024-02-04T12:33:53;2.63;;;1.70;;
10050;SDS011;5065;46.942;7.432;2024-02-04T12:36:23;5.67;;;2.07;;
10050;SDS011;5065;46.942;7.432;2024-02-04T12:38:54;3.17;;;2.00;;
10050;SDS011;5065;46.942;7.432;2024-02-04T12:41:25;6.97;;;1.87;;
10050;SDS011;5065;46.942;7.432;2024-02-04T12:43:53;3.63;;;1.97;;
10050;SDS011;5065;46.942;7.432;2024-02-04T12:46:22;3.57;;;2.40;;
10050;SDS011;5065;46.942;7.432;2024-02-04T12:48:53;2.27;;;1.80;;
10050;SDS011;5065;46.942;7.432;2024-02-04T12:51:25;2.87;;;1.40;;
10050;SDS011;5065;46.942;7.432;2024-02-04T12:54:02;2.60;;;1.80;;
10050;SDS011;5065;46.942;7.432;2024-02-04T12:56:41;5.03;;;2.17;;
10050;SDS011;5065;46.942;7.432;2024-02-04T12:59:10;2.60;;;1.80;;
10050;SDS011;5065;46.942;7.432;2024-02-04T13:01:37;1.77;;;1.57;;
10050;SDS011;5065;46.942;7.432;2024-02-04T13:04:05;2.57;;;1.43;;
10050;SDS011;5065;46.942;7.432;2024-02-04T13:06:37;2.73;;;1.77;;
10050;SDS011;5065;46.942;7.432;2024-02-04T13:09:05;4.37;;;1.80;;
10050;SDS011;5065;46.942;7.432;2024-02-04T13:11:34;4.50;;;2.03;;
10050;SDS011;5065;46.942;7.432;2024-02-04T13:14:02;2.73;;;1.90;;
10050;SDS011;5065;46.942;7.432;2024-02-04T13:16:30;4.33;;;1.80;;
10050;SDS011;5065;46.942;7.432;2024-02-04T13:18:57;5.90;;;2.10;;
10050;SDS011;5065;46.942;7.432;2024-02-04T13:21:24;3.73;;;1.80;;
10050;SDS011;5065;46.942;7.432;2024-02-04T13:23:51;3.43;;;2.30;;
10050;SDS011;5065;46.942;7.432;2024-02-04T13:26:18;3.23;;;2.00;;
10050;SDS011;5065;46.942;7.432;2024-02-04T13:28:46;3.83;;;2.97;;
10050;SDS011;5065;46.942;7.432;2024-02-04T13:31:15;5.33;;;3.93;;
10050;SDS011;5065;46.942;7.432;2024-02-04T13:33:42;9.27;;;3.80;;
10050;SDS011;5065;46.942;7.432;2024-02-04T13:36:09;5.27;;;3.70;;
10050;SDS011;5065;46.942;7.432;2024-02-04T13:38:37;4.87;;;2.90;;
10050;SDS011;5065;46.942;7.432;2024-02-04T13:41:04;5.50;;;3.10;;
10050;SDS011;5065;46.942;7.432;2024-02-04T13:43:33;6.77;;;4.70;;
10050;SDS011;5065;46.942;7.432;2024-02-04T13:46:00;4.87;;;3.30;;
10050;SDS011;5065;46.942;7.432;2024-02-04T13:48:28;4.57;;;2.97;;
10050;SDS011;5065;46.942;7.432;2024-02-04T13:50:56;5.57;;;3.60;;
10050;SDS011;5065;46.942;7.432;2024-02-04T13:53:23;7.63;;;3.40;;
10050;SDS011;5065;46.942;7.432;2024-02-04T13:55:52;6.20;;;3.27;;
10050;SDS011;5065;46.942;7.432;2024-02-04T13:58:19;7.00;;;4.10;;
10050;SDS011;5065;46.942;7.432;2024-02-04T14:00:48;4.50;;;3.13;;
10050;SDS011;5065;46.942;7.432;2024-02-04T14:03:15;4.33;;;3.33;;
10050;SDS011;5065;46.942;7.432;2024-02-04T14:05:44;6.93;;;3.87;;
10050;SDS011;5065;46.942;7.432;2024-02-04T14:08:11;7.23;;;3.73;;
10050;SDS011;5065;46.942;7.432;2024-02-04T14:10:38;7.53;;;4.60;;
10050;SDS011;5065;46.942;7.432;2024-02-04T14:13:06;6.37;;;3.70;;
10050;SDS011;5065;46.942;7.432;2024-02-04T14:15:33;6.70;;;4.13;;
10050;SDS011;5065;46.942;7.432;2024-02-04T14:18:00;6.47;;;3.70;;
10050;SDS011;5065;46.942;7.432;2024-02-04T14:20:27;6.23;;;4.17;;
10050;SDS011;5065;46.942;7.432;2024-02-04T14:22:57;7.50;;;3.80;;
10050;SDS011;5065;46.942;7.432;2024-02-04T14:25:24;7.47;;;4.07;;
10050;SDS011;5065;46.942;7.432;2024-02-04T14:27:51;9.97;;;4.03;;
10050;SDS011;5065;46.942;7.432;2024-02-04T14:30:19;11.53;;;3.93;;
10050;SDS011;5065;46.942;7.432;2024-02-04T14:32:47;10.47;;;4.47;;
10050;SDS011;5065;46.942;7.432;2024-02-04T14:35:14;7.47;;;4.63;;
10050;SDS011;5065;46.942;7.432;2024-02-04T14:37:41;6.90;;;4.27;;
10050;SDS011;5065;46.942;7.432;2024-02-04T14:40:10;5.70;;;3.87;;
10050;SDS011;5065;46.942;7.432;2024-02-04T14:42:38;7.60;;;4.23;;
10050;SDS011;5065;46.942;7.432;2024-02-04T14:45:05;4.70;;;3.87;;
10050;SDS011;5065;46.942;7.432;2024-02-04T14:47:34;7.30;;;3.53;;
10050;SDS011;5065;46.942;7.432;2024-02-04T14:50:01;6.40;;;4.97;;
10050;SDS011;5065;46.942;7.432;2024-02-04T14:52:28;6.77;;;4.40;;
10050;SDS011;5065;46.942;7.432;2024-02-04T14:54:56;6.40;;;4.03;;
10050;SDS011;5065;46.942;7.432;2024-02-04T14:57:25;5.37;;;3.60;;
10050;SDS011;5065;46.942;7.432;2024-02-04T14:59:52;7.07;;;4.13;;
10050;SDS011;5065;46.942;7.432;2024-02-04T15:02:19;7.20;;;4.20;;
10050;SDS011;5065;46.942;7.432;2024-02-04T15:04:46;7.90;;;4.10;;
10050;SDS011;5065;46.942;7.432;2024-02-04T15:07:13;7.30;;;4.40;;
10050;SDS011;5065;46.942;7.432;2024-02-04T15:09:42;4.23;;;3.30;;